Nearby METAR Reports

 

KHCR - Heber/Russ Mcdon, Utah, USA
Distance from station: SSW 18mi, 29km
Updated: Wed, 02-Dec-2020 3:35am MST
Partly cloudy
Partly cloudy
 Wind from NE
Wind: NE 3 mph , 6 km/h
Temperature: 19°F , -7°C
Dew Point: 12°F , -11°C
Humidity: 73%
Barometer: 30.36 inHg , 1028.1 hPa
Clouds: Partly cloudy
Visibility: 10 miles , 16 km
Cloud details: Partly cloudy 4100 ft
2020/12/02 10:35 KHCR 021035Z AUTO 04003KT 10SM SCT041 M07/M11 A3036 RMK AO2
KSLC - Salt Lake City, Utah, USA
Distance from station: W 35mi, 57km
Updated: Wed, 02-Dec-2020 3:54am MST
Clear
Clear
 Wind from calm
Wind: Calm
Temperature: 21°F , -6°C
Dew Point: 18°F , -8°C
Humidity: 86%
Barometer: 30.41 inHg , 1029.8 hPa
Clouds: Clear
Visibility: 10 miles , 16 km
2020/12/02 10:54 KSLC 021054Z 00000KT 10SM CLR M06/M08 A3041 RMK AO2 SLP315 T10611078
 
KU42 - Salt Lake Muni, Utah, USA
Distance from station: WSW 37mi, 59km
Updated: Wed, 02-Dec-2020 3:55am MST
Clear
Clear
 Wind from NW
Wind: NW 9 mph , 15 km/h
Temperature: 23°F , -5°C
Wind Chill: 13°F , -11°C
Dew Point: 21°F , -6°C
Humidity: 93%
Barometer: 30.40 inHg , 1029.5 hPa
Clouds: Clear
Visibility: 10 miles , 16 km
2020/12/02 10:55 KU42 021055Z AUTO 31008KT 10SM CLR M05/M06 A3040 RMK AO1 T10501061
KEVW - Evanston, Wyoming, USA
Distance from station: NNE 40mi, 64km
Updated: Wed, 02-Dec-2020 3:53am MST
Light snow, Overcast
Light snow, Overcast
 Wind from NNE
Wind: NNE 7 mph , 11 km/h
Temperature: 16°F , -9°C
Wind Chill: 6°F , -14°C
Dew Point: 10°F , -12°C
Humidity: 79%
Barometer: 30.35 inHg , 1027.8 hPa
Summary: Light Snow
Clouds: Overcast
Visibility: 4 miles , 6 km
Cloud details: Mostly cloudy 1600 ft
Overcast 2100 ft
2020/12/02 10:53 KEVW 021053Z AUTO 02006KT 4SM -SN BKN016 OVC021 M09/M12 A3035 RMK AO2 SNB10 SLP317 P0000 T10941122
 
KPVU - Provo Muni, Utah, USA
Distance from station: SSW 41mi, 67km
Updated: Wed, 02-Dec-2020 3:56am MST
Clear
Clear
 Wind from E
Wind: E 5 mph , 7 km/h
Temperature: 21°F , -6°C
Wind Chill: 14°F , -10°C
Dew Point: 16°F , -9°C
Humidity: 80%
Barometer: 30.41 inHg , 1029.8 hPa
Clouds: Clear
Visibility: 10 miles , 16 km
2020/12/02 10:56 KPVU 021056Z AUTO 09004KT 10SM CLR M06/M09 A3041 RMK AO2 SLP324 T10611089 FZRANO
KHIF - Hill Afb/Ogden, Utah, USA
Distance from station: NW 45mi, 72km
Updated: Wed, 02-Dec-2020 2:58am MST
Clear
Clear
 Wind from ESE
Wind: ESE 6 mph , 9 km/h
Temperature: 23°F , -5°C
Wind Chill: 16°F , -9°C
Dew Point: 14°F , -10°C
Humidity: 68%
Barometer: 30.39 inHg , 1029.1 hPa
Clouds: Clear
Visibility: 10 miles , 16 km
2020/12/02 09:58 KHIF 020958Z 12005KT 10SM CLR M05/M10 A3039 RMK AO2A SLP309 T10481102
 
KOGD - Ogden, Utah, USA
Distance from station: NW 50mi, 81km
Updated: Wed, 02-Dec-2020 3:53am MST
Clear
Clear
 Wind from WNW
Wind: WNW 7 mph , 11 km/h
Temperature: 25°F , -4°C
Wind Chill: 17°F , -8°C
Dew Point: 16°F , -9°C
Humidity: 69%
Barometer: 30.40 inHg , 1029.5 hPa
Clouds: Clear
Visibility: 10 miles , 16 km
2020/12/02 10:53 KOGD 021053Z AUTO 29006KT 10SM CLR M04/M09 A3040 RMK AO2 SLP306 T10391089